sensor_id;sensor_type;location;lat;lon;timestamp;temperature;humidity
12819;DHT22;6474;53.474;9.894;2022-08-27T00:02:04;21.70;70.20
12819;DHT22;6474;53.474;9.894;2022-08-27T00:04:34;21.70;70.10
12819;DHT22;6474;53.474;9.894;2022-08-27T00:07:03;21.70;70.20
12819;DHT22;6474;53.474;9.894;2022-08-27T00:09:31;21.70;70.20
12819;DHT22;6474;53.474;9.894;2022-08-27T00:11:59;21.70;70.20
12819;DHT22;6474;53.474;9.894;2022-08-27T00:14:27;21.70;70.20
12819;DHT22;6474;53.474;9.894;2022-08-27T00:16:56;21.70;70.20
12819;DHT22;6474;53.474;9.894;2022-08-27T00:19:24;21.70;70.20
12819;DHT22;6474;53.474;9.894;2022-08-27T00:21:53;21.70;70.20
12819;DHT22;6474;53.474;9.894;2022-08-27T00:24:21;21.60;70.10
12819;DHT22;6474;53.474;9.894;2022-08-27T00:26:49;21.60;70.10
12819;DHT22;6474;53.474;9.894;2022-08-27T00:29:19;21.60;70.10
12819;DHT22;6474;53.474;9.894;2022-08-27T00:31:47;21.60;70.10
12819;DHT22;6474;53.474;9.894;2022-08-27T00:34:21;21.60;70.10
12819;DHT22;6474;53.474;9.894;2022-08-27T00:36:49;21.60;70.10
12819;DHT22;6474;53.474;9.894;2022-08-27T00:39:20;21.60;70.10
12819;DHT22;6474;53.474;9.894;2022-08-27T00:41:48;21.60;70.10
12819;DHT22;6474;53.474;9.894;2022-08-27T00:44:16;21.60;70.10
12819;DHT22;6474;53.474;9.894;2022-08-27T00:46:46;21.60;70.10
12819;DHT22;6474;53.474;9.894;2022-08-27T00:49:18;21.60;70.10
12819;DHT22;6474;53.474;9.894;2022-08-27T00:51:51;21.60;70.90
12819;DHT22;6474;53.474;9.894;2022-08-27T00:54:21;21.50;70.00
12819;DHT22;6474;53.474;9.894;2022-08-27T00:56:49;21.50;70.00
12819;DHT22;6474;53.474;9.894;2022-08-27T00:59:20;21.50;70.00
12819;DHT22;6474;53.474;9.894;2022-08-27T01:01:49;21.50;70.00
12819;DHT22;6474;53.474;9.894;2022-08-27T01:04:36;21.50;70.00
12819;DHT22;6474;53.474;9.894;2022-08-27T01:07:05;21.50;70.10
12819;DHT22;6474;53.474;9.894;2022-08-27T01:09:35;21.50;70.10
12819;DHT22;6474;53.474;9.894;2022-08-27T01:12:04;21.50;70.20
12819;DHT22;6474;53.474;9.894;2022-08-27T01:14:32;21.50;70.10
12819;DHT22;6474;53.474;9.894;2022-08-27T01:17:01;21.40;70.10
12819;DHT22;6474;53.474;9.894;2022-08-27T01:19:33;21.40;70.20
12819;DHT22;6474;53.474;9.894;2022-08-27T01:22:08;21.40;70.30
12819;DHT22;6474;53.474;9.894;2022-08-27T01:24:50;21.40;70.30
12819;DHT22;6474;53.474;9.894;2022-08-27T01:27:21;21.40;70.30
12819;DHT22;6474;53.474;9.894;2022-08-27T01:29:51;21.30;70.10
12819;DHT22;6474;53.474;9.894;2022-08-27T01:32:22;21.30;70.10
12819;DHT22;6474;53.474;9.894;2022-08-27T01:34:51;21.30;71.00
12819;DHT22;6474;53.474;9.894;2022-08-27T01:37:20;21.30;70.30
12819;DHT22;6474;53.474;9.894;2022-08-27T01:39:52;21.20;70.30
12819;DHT22;6474;53.474;9.894;2022-08-27T01:42:23;21.20;70.30
12819;DHT22;6474;53.474;9.894;2022-08-27T01:44:54;21.20;70.30
12819;DHT22;6474;53.474;9.894;2022-08-27T01:47:24;21.20;70.40
12819;DHT22;6474;53.474;9.894;2022-08-27T01:49:57;21.20;70.50
12819;DHT22;6474;53.474;9.894;2022-08-27T01:52:27;21.20;70.50
12819;DHT22;6474;53.474;9.894;2022-08-27T01:54:57;21.20;70.40
12819;DHT22;6474;53.474;9.894;2022-08-27T01:57:25;21.20;70.30
12819;DHT22;6474;53.474;9.894;2022-08-27T01:59:57;21.20;70.30
12819;DHT22;6474;53.474;9.894;2022-08-27T02:02:37;21.20;70.30
12819;DHT22;6474;53.474;9.894;2022-08-27T02:05:09;21.20;70.30
12819;DHT22;6474;53.474;9.894;2022-08-27T02:07:40;21.20;70.40
12819;DHT22;6474;53.474;9.894;2022-08-27T02:10:14;21.20;70.50
12819;DHT22;6474;53.474;9.894;2022-08-27T02:12:45;21.20;70.50
12819;DHT22;6474;53.474;9.894;2022-08-27T02:15:14;21.20;70.40
12819;DHT22;6474;53.474;9.894;2022-08-27T02:17:42;21.20;70.40
12819;DHT22;6474;53.474;9.894;2022-08-27T02:22:48;21.20;70.40
12819;DHT22;6474;53.474;9.894;2022-08-27T02:25:20;21.30;70.50
12819;DHT22;6474;53.474;9.894;2022-08-27T02:27:49;21.30;70.50
12819;DHT22;6474;53.474;9.894;2022-08-27T02:30:21;21.20;70.40
12819;DHT22;6474;53.474;9.894;2022-08-27T02:32:49;21.30;70.50
12819;DHT22;6474;53.474;9.894;2022-08-27T02:35:20;21.20;70.40
12819;DHT22;6474;53.474;9.894;2022-08-27T02:37:53;21.20;70.40
12819;DHT22;6474;53.474;9.894;2022-08-27T02:40:23;21.20;70.40
12819;DHT22;6474;53.474;9.894;2022-08-27T02:42:51;21.20;70.40
12819;DHT22;6474;53.474;9.894;2022-08-27T02:45:19;21.20;70.40
12819;DHT22;6474;53.474;9.894;2022-08-27T02:47:47;21.20;70.40
12819;DHT22;6474;53.474;9.894;2022-08-27T02:50:16;21.20;70.40
12819;DHT22;6474;53.474;9.894;2022-08-27T02:52:44;21.20;70.50
12819;DHT22;6474;53.474;9.894;2022-08-27T02:55:12;21.20;70.50
12819;DHT22;6474;53.474;9.894;2022-08-27T02:57:44;21.20;70.50
12819;DHT22;6474;53.474;9.894;2022-08-27T03:00:15;21.20;70.40
12819;DHT22;6474;53.474;9.894;2022-08-27T03:02:43;21.20;70.40
12819;DHT22;6474;53.474;9.894;2022-08-27T03:05:12;21.10;70.30
12819;DHT22;6474;53.474;9.894;2022-08-27T03:07:41;21.20;70.40
12819;DHT22;6474;53.474;9.894;2022-08-27T03:10:11;21.20;70.50
12819;DHT22;6474;53.474;9.894;2022-08-27T03:12:40;21.10;70.40
12819;DHT22;6474;53.474;9.894;2022-08-27T03:15:12;21.10;70.40
12819;DHT22;6474;53.474;9.894;2022-08-27T03:17:41;21.10;70.40
12819;DHT22;6474;53.474;9.894;2022-08-27T03:20:26;21.10;70.40
12819;DHT22;6474;53.474;9.894;2022-08-27T03:22:55;21.10;70.40
12819;DHT22;6474;53.474;9.894;2022-08-27T03:25:23;21.10;70.40
12819;DHT22;6474;53.474;9.894;2022-08-27T03:27:51;21.10;70.40
12819;DHT22;6474;53.474;9.894;2022-08-27T03:30:21;21.10;70.50
12819;DHT22;6474;53.474;9.894;2022-08-27T03:32:51;21.10;71.20
12819;DHT22;6474;53.474;9.894;2022-08-27T03:35:20;21.00;70.40
12819;DHT22;6474;53.474;9.894;2022-08-27T03:37:48;21.00;70.40
12819;DHT22;6474;53.474;9.894;2022-08-27T03:40:17;21.00;70.40
12819;DHT22;6474;53.474;9.894;2022-08-27T03:42:45;21.00;70.50
12819;DHT22;6474;53.474;9.894;2022-08-27T03:45:13;21.10;70.60
12819;DHT22;6474;53.474;9.894;2022-08-27T03:47:43;21.00;70.50
12819;DHT22;6474;53.474;9.894;2022-08-27T03:50:11;21.00;70.50
12819;DHT22;6474;53.474;9.894;2022-08-27T03:52:39;21.00;70.50
12819;DHT22;6474;53.474;9.894;2022-08-27T03:55:07;21.00;70.60
12819;DHT22;6474;53.474;9.894;2022-08-27T03:57:35;21.00;70.50
12819;DHT22;6474;53.474;9.894;2022-08-27T04:00:05;21.00;70.50
12819;DHT22;6474;53.474;9.894;2022-08-27T04:02:33;21.00;70.50
12819;DHT22;6474;53.474;9.894;2022-08-27T04:05:03;21.00;70.40
12819;DHT22;6474;53.474;9.894;2022-08-27T04:07:31;21.00;70.40
12819;DHT22;6474;53.474;9.894;2022-08-27T04:09:59;21.00;70.40
12819;DHT22;6474;53.474;9.894;2022-08-27T04:12:27;21.00;70.50
12819;DHT22;6474;53.474;9.894;2022-08-27T04:14:55;21.00;70.40
12819;DHT22;6474;53.474;9.894;2022-08-27T04:17:23;21.00;70.50
12819;DHT22;6474;53.474;9.894;2022-08-27T04:19:51;20.90;70.50
12819;DHT22;6474;53.474;9.894;2022-08-27T04:22:20;20.90;70.60
12819;DHT22;6474;53.474;9.894;2022-08-27T04:24:49;20.90;70.60
12819;DHT22;6474;53.474;9.894;2022-08-27T04:27:17;20.90;70.70
12819;DHT22;6474;53.474;9.894;2022-08-27T04:29:46;20.90;70.70
12819;DHT22;6474;53.474;9.894;2022-08-27T04:32:16;20.90;70.60
12819;DHT22;6474;53.474;9.894;2022-08-27T04:34:45;20.90;70.50
12819;DHT22;6474;53.474;9.894;2022-08-27T04:37:13;20.90;70.50
12819;DHT22;6474;53.474;9.894;2022-08-27T04:39:48;20.90;70.60
12819;DHT22;6474;53.474;9.894;2022-08-27T04:42:17;20.90;70.70
12819;DHT22;6474;53.474;9.894;2022-08-27T04:44:45;20.80;70.50
12819;DHT22;6474;53.474;9.894;2022-08-27T04:47:14;20.80;70.60
12819;DHT22;6474;53.474;9.894;2022-08-27T04:49:42;20.80;70.60
12819;DHT22;6474;53.474;9.894;2022-08-27T04:52:10;20.80;70.60
12819;DHT22;6474;53.474;9.894;2022-08-27T04:54:38;20.80;70.60
12819;DHT22;6474;53.474;9.894;2022-08-27T04:57:07;20.80;70.70
12819;DHT22;6474;53.474;9.894;2022-08-27T04:59:35;20.80;70.70
12819;DHT22;6474;53.474;9.894;2022-08-27T05:02:05;20.80;70.60
12819;DHT22;6474;53.474;9.894;2022-08-27T05:04:36;20.80;70.70
12819;DHT22;6474;53.474;9.894;2022-08-27T05:07:07;20.80;70.70
12819;DHT22;6474;53.474;9.894;2022-08-27T05:09:36;20.70;70.60
12819;DHT22;6474;53.474;9.894;2022-08-27T05:12:04;20.70;70.60
12819;DHT22;6474;53.474;9.894;2022-08-27T05:14:34;20.70;70.60
12819;DHT22;6474;53.474;9.894;2022-08-27T05:17:02;20.70;70.60
12819;DHT22;6474;53.474;9.894;2022-08-27T05:19:30;20.70;70.60
12819;DHT22;6474;53.474;9.894;2022-08-27T05:21:58;20.70;70.70
12819;DHT22;6474;53.474;9.894;2022-08-27T05:24:26;20.70;70.70
12819;DHT22;6474;53.474;9.894;2022-08-27T05:26:54;20.70;70.60
12819;DHT22;6474;53.474;9.894;2022-08-27T05:29:21;20.70;70.60
12819;DHT22;6474;53.474;9.894;2022-08-27T05:31:51;20.70;70.70
12819;DHT22;6474;53.474;9.894;2022-08-27T05:34:20;20.70;70.70
12819;DHT22;6474;53.474;9.894;2022-08-27T05:36:52;20.70;70.70
12819;DHT22;6474;53.474;9.894;2022-08-27T05:39:20;20.70;70.70
12819;DHT22;6474;53.474;9.894;2022-08-27T05:41:54;20.70;70.60
12819;DHT22;6474;53.474;9.894;2022-08-27T05:44:22;20.70;70.60
12819;DHT22;6474;53.474;9.894;2022-08-27T05:47:09;20.80;70.70
12819;DHT22;6474;53.474;9.894;2022-08-27T05:49:36;20.80;70.70
12819;DHT22;6474;53.474;9.894;2022-08-27T05:52:07;20.70;70.60
12819;DHT22;6474;53.474;9.894;2022-08-27T05:54:36;20.70;70.60
12819;DHT22;6474;53.474;9.894;2022-08-27T05:57:04;20.70;70.60
12819;DHT22;6474;53.474;9.894;2022-08-27T05:59:32;20.70;70.60
12819;DHT22;6474;53.474;9.894;2022-08-27T06:02:19;20.70;70.80
12819;DHT22;6474;53.474;9.894;2022-08-27T06:04:47;20.60;70.70
12819;DHT22;6474;53.474;9.894;2022-08-27T06:07:15;20.70;70.80
12819;DHT22;6474;53.474;9.894;2022-08-27T06:09:43;20.60;70.70
12819;DHT22;6474;53.474;9.894;2022-08-27T06:12:11;20.60;70.70
12819;DHT22;6474;53.474;9.894;2022-08-27T06:14:39;20.70;70.80
12819;DHT22;6474;53.474;9.894;2022-08-27T06:17:07;20.60;70.70
12819;DHT22;6474;53.474;9.894;2022-08-27T06:19:37;20.60;70.70
12819;DHT22;6474;53.474;9.894;2022-08-27T06:22:08;20.60;70.70
12819;DHT22;6474;53.474;9.894;2022-08-27T06:24:38;20.60;70.70
12819;DHT22;6474;53.474;9.894;2022-08-27T06:27:08;20.60;70.70
12819;DHT22;6474;53.474;9.894;2022-08-27T06:29:37;20.60;70.80
12819;DHT22;6474;53.474;9.894;2022-08-27T06:32:06;20.60;70.80
12819;DHT22;6474;53.474;9.894;2022-08-27T06:34:36;20.60;70.70
12819;DHT22;6474;53.474;9.894;2022-08-27T06:37:04;20.60;70.80
12819;DHT22;6474;53.474;9.894;2022-08-27T06:39:33;20.60;70.80
12819;DHT22;6474;53.474;9.894;2022-08-27T06:42:03;20.60;70.80
12819;DHT22;6474;53.474;9.894;2022-08-27T06:44:32;20.50;70.80
12819;DHT22;6474;53.474;9.894;2022-08-27T06:47:00;20.50;70.80
12819;DHT22;6474;53.474;9.894;2022-08-27T06:49:39;20.50;70.80
12819;DHT22;6474;53.474;9.894;2022-08-27T06:52:12;20.50;70.90
12819;DHT22;6474;53.474;9.894;2022-08-27T06:54:40;20.50;70.90
12819;DHT22;6474;53.474;9.894;2022-08-27T06:57:08;20.50;70.90
12819;DHT22;6474;53.474;9.894;2022-08-27T06:59:38;20.50;70.90
12819;DHT22;6474;53.474;9.894;2022-08-27T07:02:09;20.40;70.80
12819;DHT22;6474;53.474;9.894;2022-08-27T07:04:40;20.40;70.80
12819;DHT22;6474;53.474;9.894;2022-08-27T07:07:10;20.40;70.90
12819;DHT22;6474;53.474;9.894;2022-08-27T07:09:39;20.40;70.90
12819;DHT22;6474;53.474;9.894;2022-08-27T07:12:07;20.50;71.00
12819;DHT22;6474;53.474;9.894;2022-08-27T07:14:35;20.50;70.90
12819;DHT22;6474;53.474;9.894;2022-08-27T07:17:05;20.50;70.80
12819;DHT22;6474;53.474;9.894;2022-08-27T07:19:43;20.50;70.80
12819;DHT22;6474;53.474;9.894;2022-08-27T07:22:11;20.60;70.80
12819;DHT22;6474;53.474;9.894;2022-08-27T07:24:41;20.60;70.60
12819;DHT22;6474;53.474;9.894;2022-08-27T07:27:11;20.60;70.70
12819;DHT22;6474;53.474;9.894;2022-08-27T07:29:41;20.60;70.70
12819;DHT22;6474;53.474;9.894;2022-08-27T07:32:08;20.50;70.60
12819;DHT22;6474;53.474;9.894;2022-08-27T07:34:36;20.50;70.70
12819;DHT22;6474;53.474;9.894;2022-08-27T07:37:05;20.50;70.80
12819;DHT22;6474;53.474;9.894;2022-08-27T07:39:33;20.40;70.80
12819;DHT22;6474;53.474;9.894;2022-08-27T07:42:01;20.40;70.90
12819;DHT22;6474;53.474;9.894;2022-08-27T07:44:46;20.40;70.90
12819;DHT22;6474;53.474;9.894;2022-08-27T07:47:15;20.30;70.80
12819;DHT22;6474;53.474;9.894;2022-08-27T07:49:43;20.30;70.90
12819;DHT22;6474;53.474;9.894;2022-08-27T07:52:15;20.30;70.90
12819;DHT22;6474;53.474;9.894;2022-08-27T07:54:44;20.30;70.90
12819;DHT22;6474;53.474;9.894;2022-08-27T07:57:11;20.30;70.90
12819;DHT22;6474;53.474;9.894;2022-08-27T07:59:39;20.30;71.00
12819;DHT22;6474;53.474;9.894;2022-08-27T08:02:07;20.30;71.00
12819;DHT22;6474;53.474;9.894;2022-08-27T08:04:35;20.40;71.10
12819;DHT22;6474;53.474;9.894;2022-08-27T08:07:03;20.30;70.90
12819;DHT22;6474;53.474;9.894;2022-08-27T08:09:32;20.30;70.90
12819;DHT22;6474;53.474;9.894;2022-08-27T08:12:03;20.30;70.80
12819;DHT22;6474;53.474;9.894;2022-08-27T08:14:32;20.40;71.00
12819;DHT22;6474;53.474;9.894;2022-08-27T08:17:00;20.40;70.90
12819;DHT22;6474;53.474;9.894;2022-08-27T08:19:31;20.40;70.90
12819;DHT22;6474;53.474;9.894;2022-08-27T08:22:00;20.40;70.90
12819;DHT22;6474;53.474;9.894;2022-08-27T08:24:35;20.40;70.90
12819;DHT22;6474;53.474;9.894;2022-08-27T08:27:13;20.40;70.90
12819;DHT22;6474;53.474;9.894;2022-08-27T08:29:44;20.40;70.90
12819;DHT22;6474;53.474;9.894;2022-08-27T08:32:15;20.40;70.90
12819;DHT22;6474;53.474;9.894;2022-08-27T08:34:46;20.50;70.90
12819;DHT22;6474;53.474;9.894;2022-08-27T08:37:14;20.50;70.90
12819;DHT22;6474;53.474;9.894;2022-08-27T08:39:43;20.50;70.80
12819;DHT22;6474;53.474;9.894;2022-08-27T08:42:28;20.50;70.80
12819;DHT22;6474;53.474;9.894;2022-08-27T08:44:58;20.40;70.80
12819;DHT22;6474;53.474;9.894;2022-08-27T08:47:33;20.40;71.50
12819;DHT22;6474;53.474;9.894;2022-08-27T08:50:06;20.40;70.80
12819;DHT22;6474;53.474;9.894;2022-08-27T08:52:44;20.40;70.90
12819;DHT22;6474;53.474;9.894;2022-08-27T08:55:25;20.30;70.80
12819;DHT22;6474;53.474;9.894;2022-08-27T08:58:06;20.30;70.90
12819;DHT22;6474;53.474;9.894;2022-08-27T09:00:36;20.30;70.90
12819;DHT22;6474;53.474;9.894;2022-08-27T09:03:06;20.30;70.90
12819;DHT22;6474;53.474;9.894;2022-08-27T09:05:36;20.30;71.00
12819;DHT22;6474;53.474;9.894;2022-08-27T09:08:14;20.30;71.00
12819;DHT22;6474;53.474;9.894;2022-08-27T09:11:08;20.30;71.10
12819;DHT22;6474;53.474;9.894;2022-08-27T09:13:41;20.20;71.00
12819;DHT22;6474;53.474;9.894;2022-08-27T09:16:10;20.30;71.00
12819;DHT22;6474;53.474;9.894;2022-08-27T09:18:39;20.30;71.00
12819;DHT22;6474;53.474;9.894;2022-08-27T09:21:19;20.30;71.10
12819;DHT22;6474;53.474;9.894;2022-08-27T09:24:04;20.30;71.10
12819;DHT22;6474;53.474;9.894;2022-08-27T09:26:38;20.30;71.90
12819;DHT22;6474;53.474;9.894;2022-08-27T09:29:08;20.30;71.10
12819;DHT22;6474;53.474;9.894;2022-08-27T09:31:51;20.30;71.00
12819;DHT22;6474;53.474;9.894;2022-08-27T09:34:19;20.40;71.10
12819;DHT22;6474;53.474;9.894;2022-08-27T09:36:55;20.40;71.00
12819;DHT22;6474;53.474;9.894;2022-08-27T09:39:28;20.40;70.90
12819;DHT22;6474;53.474;9.894;2022-08-27T09:42:01;20.40;70.90
12819;DHT22;6474;53.474;9.894;2022-08-27T09:44:29;20.40;70.90
12819;DHT22;6474;53.474;9.894;2022-08-27T09:47:01;20.40;70.90
12819;DHT22;6474;53.474;9.894;2022-08-27T09:49:30;20.40;70.90
12819;DHT22;6474;53.474;9.894;2022-08-27T09:52:00;20.40;70.90
12819;DHT22;6474;53.474;9.894;2022-08-27T09:54:38;20.50;71.00
12819;DHT22;6474;53.474;9.894;2022-08-27T09:57:11;20.50;70.90
12819;DHT22;6474;53.474;9.894;2022-08-27T09:59:42;20.50;70.80
12819;DHT22;6474;53.474;9.894;2022-08-27T10:02:18;20.50;70.80
12819;DHT22;6474;53.474;9.894;2022-08-27T10:04:48;20.50;70.80
12819;DHT22;6474;53.474;9.894;2022-08-27T10:07:29;20.60;70.90
12819;DHT22;6474;53.474;9.894;2022-08-27T10:10:02;20.60;70.90
12819;DHT22;6474;53.474;9.894;2022-08-27T10:12:48;20.60;70.80
12819;DHT22;6474;53.474;9.894;2022-08-27T10:15:18;20.60;70.80
12819;DHT22;6474;53.474;9.894;2022-08-27T10:17:55;20.60;70.80
12819;DHT22;6474;53.474;9.894;2022-08-27T10:20:33;20.60;70.80
12819;DHT22;6474;53.474;9.894;2022-08-27T10:23:17;20.60;70.90
12819;DHT22;6474;53.474;9.894;2022-08-27T10:25:54;20.60;70.90
12819;DHT22;6474;53.474;9.894;2022-08-27T10:28:37;20.60;71.00
12819;DHT22;6474;53.474;9.894;2022-08-27T10:31:19;20.60;71.80
12819;DHT22;6474;53.474;9.894;2022-08-27T10:34:05;20.60;71.00
12819;DHT22;6474;53.474;9.894;2022-08-27T10:36:44;20.60;71.00
12819;DHT22;6474;53.474;9.894;2022-08-27T10:39:22;20.70;71.00
12819;DHT22;6474;53.474;9.894;2022-08-27T10:42:10;20.70;70.90
12819;DHT22;6474;53.474;9.894;2022-08-27T10:44:53;20.70;70.80
12819;DHT22;6474;53.474;9.894;2022-08-27T10:47:43;20.80;70.70
12819;DHT22;6474;53.474;9.894;2022-08-27T10:50:20;20.80;70.70
12819;DHT22;6474;53.474;9.894;2022-08-27T10:52:54;20.80;70.80
12819;DHT22;6474;53.474;9.894;2022-08-27T10:55:29;20.80;70.70
12819;DHT22;6474;53.474;9.894;2022-08-27T10:58:10;20.90;70.90
12819;DHT22;6474;53.474;9.894;2022-08-27T11:00:49;20.90;70.80
12819;DHT22;6474;53.474;9.894;2022-08-27T11:03:24;20.90;70.80
12819;DHT22;6474;53.474;9.894;2022-08-27T11:06:00;20.90;71.40
12819;DHT22;6474;53.474;9.894;2022-08-27T11:08:36;21.00;70.80
12819;DHT22;6474;53.474;9.894;2022-08-27T11:11:09;21.00;70.70
12819;DHT22;6474;53.474;9.894;2022-08-27T11:13:58;21.10;70.60
12819;DHT22;6474;53.474;9.894;2022-08-27T11:16:38;21.10;70.50
12819;DHT22;6474;53.474;9.894;2022-08-27T11:19:15;21.20;70.60
12819;DHT22;6474;53.474;9.894;2022-08-27T11:21:58;21.20;70.50
12819;DHT22;6474;53.474;9.894;2022-08-27T11:24:40;21.20;70.50
12819;DHT22;6474;53.474;9.894;2022-08-27T11:27:15;21.30;70.60
12819;DHT22;6474;53.474;9.894;2022-08-27T11:29:52;21.40;70.50
12819;DHT22;6474;53.474;9.894;2022-08-27T11:32:38;21.50;70.40
12819;DHT22;6474;53.474;9.894;2022-08-27T11:35:15;21.60;70.40
12819;DHT22;6474;53.474;9.894;2022-08-27T11:37:59;21.60;70.30
12819;DHT22;6474;53.474;9.894;2022-08-27T11:40:43;21.70;70.20
12819;DHT22;6474;53.474;9.894;2022-08-27T11:43:17;21.70;70.20
12819;DHT22;6474;53.474;9.894;2022-08-27T11:45:55;21.80;70.30
12819;DHT22;6474;53.474;9.894;2022-08-27T11:48:27;21.90;70.40
12819;DHT22;6474;53.474;9.894;2022-08-27T11:50:58;21.90;70.40
12819;DHT22;6474;53.474;9.894;2022-08-27T11:53:31;22.00;70.40
12819;DHT22;6474;53.474;9.894;2022-08-27T11:56:19;22.10;70.40
12819;DHT22;6474;53.474;9.894;2022-08-27T11:59:08;22.10;70.20
12819;DHT22;6474;53.474;9.894;2022-08-27T12:01:37;22.20;70.20
12819;DHT22;6474;53.474;9.894;2022-08-27T12:04:31;22.30;70.10
12819;DHT22;6474;53.474;9.894;2022-08-27T12:07:02;22.40;70.00
12819;DHT22;6474;53.474;9.894;2022-08-27T12:09:46;22.40;70.00
12819;DHT22;6474;53.474;9.894;2022-08-27T12:12:23;22.30;69.80
12819;DHT22;6474;53.474;9.894;2022-08-27T12:15:02;22.30;69.90
12819;DHT22;6474;53.474;9.894;2022-08-27T12:17:37;22.40;70.00
12819;DHT22;6474;53.474;9.894;2022-08-27T12:20:17;22.40;70.00
12819;DHT22;6474;53.474;9.894;2022-08-27T12:23:06;22.50;70.00
12819;DHT22;6474;53.474;9.894;2022-08-27T12:25:57;22.60;70.00
12819;DHT22;6474;53.474;9.894;2022-08-27T12:28:28;22.70;70.00
12819;DHT22;6474;53.474;9.894;2022-08-27T12:30:56;22.90;69.90
12819;DHT22;6474;53.474;9.894;2022-08-27T12:33:29;23.00;69.80
12819;DHT22;6474;53.474;9.894;2022-08-27T12:36:09;23.10;69.80
12819;DHT22;6474;53.474;9.894;2022-08-27T12:38:55;23.20;69.60
12819;DHT22;6474;53.474;9.894;2022-08-27T12:41:29;23.20;69.40
12819;DHT22;6474;53.474;9.894;2022-08-27T12:44:11;23.30;69.40
12819;DHT22;6474;53.474;9.894;2022-08-27T12:46:48;23.30;69.40
12819;DHT22;6474;53.474;9.894;2022-08-27T12:49:23;23.40;69.30
12819;DHT22;6474;53.474;9.894;2022-08-27T12:52:17;23.50;69.20
12819;DHT22;6474;53.474;9.894;2022-08-27T12:54:55;23.60;69.00
12819;DHT22;6474;53.474;9.894;2022-08-27T12:57:31;23.70;68.90
12819;DHT22;6474;53.474;9.894;2022-08-27T13:00:06;23.80;68.80
12819;DHT22;6474;53.474;9.894;2022-08-27T13:03:10;23.90;68.60
12819;DHT22;6474;53.474;9.894;2022-08-27T13:05:41;24.10;68.50
12819;DHT22;6474;53.474;9.894;2022-08-27T13:08:20;24.10;68.40
12819;DHT22;6474;53.474;9.894;2022-08-27T13:10:49;24.10;68.20
12819;DHT22;6474;53.474;9.894;2022-08-27T13:13:22;24.20;68.30
12819;DHT22;6474;53.474;9.894;2022-08-27T13:15:53;24.30;68.30
12819;DHT22;6474;53.474;9.894;2022-08-27T13:18:22;24.30;68.20
12819;DHT22;6474;53.474;9.894;2022-08-27T13:21:01;24.40;68.10
12819;DHT22;6474;53.474;9.894;2022-08-27T13:23:31;24.50;68.10
12819;DHT22;6474;53.474;9.894;2022-08-27T13:26:04;24.50;68.00
12819;DHT22;6474;53.474;9.894;2022-08-27T13:28:34;24.60;68.00
12819;DHT22;6474;53.474;9.894;2022-08-27T13:31:03;24.70;67.90
12819;DHT22;6474;53.474;9.894;2022-08-27T13:33:36;24.70;67.80
12819;DHT22;6474;53.474;9.894;2022-08-27T13:36:06;24.70;67.70
12819;DHT22;6474;53.474;9.894;2022-08-27T13:38:39;24.80;67.80
12819;DHT22;6474;53.474;9.894;2022-08-27T13:41:17;24.80;67.80
12819;DHT22;6474;53.474;9.894;2022-08-27T13:43:48;24.80;67.70
12819;DHT22;6474;53.474;9.894;2022-08-27T13:46:18;24.80;67.60
12819;DHT22;6474;53.474;9.894;2022-08-27T13:48:48;24.90;67.60
12819;DHT22;6474;53.474;9.894;2022-08-27T13:51:23;24.90;67.60
12819;DHT22;6474;53.474;9.894;2022-08-27T13:53:53;25.00;67.70
12819;DHT22;6474;53.474;9.894;2022-08-27T13:56:53;25.00;67.50
12819;DHT22;6474;53.474;9.894;2022-08-27T13:59:24;25.00;68.20
12819;DHT22;6474;53.474;9.894;2022-08-27T14:01:57;25.00;67.30
12819;DHT22;6474;53.474;9.894;2022-08-27T14:04:33;25.00;67.30
12819;DHT22;6474;53.474;9.894;2022-08-27T14:07:07;25.10;67.10
12819;DHT22;6474;53.474;9.894;2022-08-27T14:09:43;25.10;67.10
12819;DHT22;6474;53.474;9.894;2022-08-27T14:12:27;25.10;67.10
12819;DHT22;6474;53.474;9.894;2022-08-27T14:15:14;25.00;67.00
12819;DHT22;6474;53.474;9.894;2022-08-27T14:17:45;25.00;67.10
12819;DHT22;6474;53.474;9.894;2022-08-27T14:20:14;24.90;67.00
12819;DHT22;6474;53.474;9.894;2022-08-27T14:22:43;24.90;67.40
12819;DHT22;6474;53.474;9.894;2022-08-27T14:25:13;24.90;67.40
12819;DHT22;6474;53.474;9.894;2022-08-27T14:27:42;24.80;67.10
12819;DHT22;6474;53.474;9.894;2022-08-27T14:30:22;24.80;67.50
12819;DHT22;6474;53.474;9.894;2022-08-27T14:32:56;24.70;67.30
12819;DHT22;6474;53.474;9.894;2022-08-27T14:35:26;24.60;67.50
12819;DHT22;6474;53.474;9.894;2022-08-27T14:37:54;24.60;67.70
12819;DHT22;6474;53.474;9.894;2022-08-27T14:40:24;24.50;67.60
12819;DHT22;6474;53.474;9.894;2022-08-27T14:42:52;24.50;67.70
12819;DHT22;6474;53.474;9.894;2022-08-27T14:45:20;24.40;67.60
12819;DHT22;6474;53.474;9.894;2022-08-27T14:47:49;24.30;67.70
12819;DHT22;6474;53.474;9.894;2022-08-27T14:50:18;24.20;67.70
12819;DHT22;6474;53.474;9.894;2022-08-27T14:52:47;24.20;67.70
12819;DHT22;6474;53.474;9.894;2022-08-27T14:55:16;24.20;67.70
12819;DHT22;6474;53.474;9.894;2022-08-27T14:57:45;24.10;67.70
12819;DHT22;6474;53.474;9.894;2022-08-27T15:00:13;24.10;67.70
12819;DHT22;6474;53.474;9.894;2022-08-27T15:02:45;24.10;67.70
12819;DHT22;6474;53.474;9.894;2022-08-27T15:05:14;24.10;67.70
12819;DHT22;6474;53.474;9.894;2022-08-27T15:07:45;24.00;67.60
12819;DHT22;6474;53.474;9.894;2022-08-27T15:10:13;24.00;67.70
12819;DHT22;6474;53.474;9.894;2022-08-27T15:12:42;24.00;67.60
12819;DHT22;6474;53.474;9.894;2022-08-27T15:15:12;24.00;67.70
12819;DHT22;6474;53.474;9.894;2022-08-27T15:17:41;23.90;67.60
12819;DHT22;6474;53.474;9.894;2022-08-27T15:20:11;23.90;67.60
12819;DHT22;6474;53.474;9.894;2022-08-27T15:22:46;23.80;67.60
12819;DHT22;6474;53.474;9.894;2022-08-27T15:25:15;23.80;67.70
12819;DHT22;6474;53.474;9.894;2022-08-27T15:27:43;23.80;68.40
12819;DHT22;6474;53.474;9.894;2022-08-27T15:30:16;23.70;67.60
12819;DHT22;6474;53.474;9.894;2022-08-27T15:32:46;23.70;67.70
12819;DHT22;6474;53.474;9.894;2022-08-27T15:35:18;23.70;67.70
12819;DHT22;6474;53.474;9.894;2022-08-27T15:37:46;23.70;67.70
12819;DHT22;6474;53.474;9.894;2022-08-27T15:40:15;23.60;67.60
12819;DHT22;6474;53.474;9.894;2022-08-27T15:42:43;23.60;67.60
12819;DHT22;6474;53.474;9.894;2022-08-27T15:45:14;23.50;67.50
12819;DHT22;6474;53.474;9.894;2022-08-27T15:47:42;23.50;67.60
12819;DHT22;6474;53.474;9.894;2022-08-27T15:50:10;23.50;67.60
12819;DHT22;6474;53.474;9.894;2022-08-27T15:52:40;23.50;67.60
12819;DHT22;6474;53.474;9.894;2022-08-27T15:55:13;23.50;67.60
12819;DHT22;6474;53.474;9.894;2022-08-27T15:57:41;23.40;67.60
12819;DHT22;6474;53.474;9.894;2022-08-27T16:00:10;23.40;67.60
12819;DHT22;6474;53.474;9.894;2022-08-27T16:02:42;23.40;67.70
12819;DHT22;6474;53.474;9.894;2022-08-27T16:05:12;23.30;67.60
12819;DHT22;6474;53.474;9.894;2022-08-27T16:07:43;23.30;67.60
12819;DHT22;6474;53.474;9.894;2022-08-27T16:10:12;23.30;67.60
12819;DHT22;6474;53.474;9.894;2022-08-27T16:12:40;23.30;67.70
12819;DHT22;6474;53.474;9.894;2022-08-27T16:15:08;23.10;67.50
12819;DHT22;6474;53.474;9.894;2022-08-27T16:17:37;23.10;67.60
12819;DHT22;6474;53.474;9.894;2022-08-27T16:20:08;23.00;67.60